Time;durP1;ratioP1;P1;durP2;ratioP2;P2;SDS_P1;SDS_P2;PMS_P1;PMS_P2;Temp;Humidity;BMP_temperature;BMP_pressure;BME280_temperature;BME280_humidity;BME280_pressure;Samples;Min_cycle;Max_cycle;Signal;HPM_P1;HPM_P2
2023/01/11 00:00:42;;;;;;;6.30;4.50;;;;;;;;;;4955237;29;20043;-65
2023/01/11 00:03:09;;;;;;;6.32;4.32;;;;;;;;;;4955140;28;20520;-65
2023/01/11 00:05:41;;;;;;;8.13;4.93;;;;;;;;;;4955148;28;20038;-65
2023/01/11 00:08:08;;;;;;;5.57;4.00;;;;;;;;;;4953171;28;20047;-65
2023/01/11 00:10:36;;;;;;;5.07;4.22;;;;;;;;;;4955072;28;20130;-65
2023/01/11 00:13:04;;;;;;;5.75;4.50;;;;;;;;;;4955289;28;20047;-65
2023/01/11 00:15:31;;;;;;;5.70;4.40;;;;;;;;;;4955313;28;20040;-65
2023/01/11 00:18:01;;;;;;;5.55;4.20;;;;;;;;;;4955000;28;20058;-65
2023/01/11 00:20:29;;;;;;;6.15;4.43;;;;;;;;;;4954793;28;20055;-65
2023/01/11 00:22:56;;;;;;;5.50;4.28;;;;;;;;;;4937864;29;20486;-65
2023/01/11 00:25:24;;;;;;;7.68;4.85;;;;;;;;;;4955090;28;20050;-65
2023/01/11 00:27:54;;;;;;;6.25;4.47;;;;;;;;;;4954843;28;20098;-65
2023/01/11 00:30:21;;;;;;;5.93;4.55;;;;;;;;;;4954721;29;20047;-65
2023/01/11 00:32:49;;;;;;;5.90;4.40;;;;;;;;;;4954946;28;20491;-65
2023/01/11 00:35:16;;;;;;;6.40;4.78;;;;;;;;;;4954828;28;20046;-65
2023/01/11 00:37:44;;;;;;;5.75;4.43;;;;;;;;;;4954712;28;20118;-65
2023/01/11 00:40:11;;;;;;;5.43;4.30;;;;;;;;;;4954587;28;20054;-65
2023/01/11 00:48:11;;;;;;;5.75;3.85;;;;;;;;;;4954496;28;20063;-65
2023/01/11 00:50:39;;;;;;;6.05;4.20;;;;;;;;;;4953375;28;20051;-65
2023/01/11 00:53:08;;;;;;;6.05;4.30;;;;;;;;;;4954544;28;20043;-65
2023/01/11 00:55:36;;;;;;;5.93;4.15;;;;;;;;;;4954504;28;20043;-65
2023/01/11 00:58:03;;;;;;;6.30;4.68;;;;;;;;;;4954378;29;20049;-65
2023/01/11 01:00:31;;;;;;;6.18;4.35;;;;;;;;;;4954615;28;20122;-65
2023/01/11 01:02:58;;;;;;;6.75;4.57;;;;;;;;;;4954624;28;20047;-65
2023/01/11 01:05:26;;;;;;;6.13;4.82;;;;;;;;;;4954439;28;20067;-65
2023/01/11 01:07:53;;;;;;;5.05;4.55;;;;;;;;;;4954278;28;20051;-65
2023/01/11 01:10:21;;;;;;;5.93;4.70;;;;;;;;;;4954373;28;20066;-66
2023/01/11 01:15:34;;;;;;;6.25;4.50;;;;;;;;;;4954310;28;20058;-65
2023/01/11 01:18:02;;;;;;;6.43;4.93;;;;;;;;;;4953104;29;20050;-65
2023/01/11 01:20:29;;;;;;;6.20;4.57;;;;;;;;;;4956867;28;20043;-65
2023/01/11 01:22:57;;;;;;;5.65;4.40;;;;;;;;;;4958342;28;20035;-65
2023/01/11 01:25:24;;;;;;;6.72;4.88;;;;;;;;;;4957984;28;20043;-65
2023/01/11 01:27:52;;;;;;;5.57;4.63;;;;;;;;;;4958170;28;20118;-65
2023/01/11 01:30:19;;;;;;;6.50;5.13;;;;;;;;;;4958067;28;20127;-65
2023/01/11 01:32:46;;;;;;;6.78;4.55;;;;;;;;;;4956527;28;20043;-65
2023/01/11 01:35:14;;;;;;;6.53;4.80;;;;;;;;;;4957796;29;20129;-65
2023/01/11 01:37:43;;;;;;;6.70;5.07;;;;;;;;;;4957708;28;20062;-65
2023/01/11 01:40:11;;;;;;;6.22;4.75;;;;;;;;;;4957694;28;20497;-66
2023/01/11 01:42:38;;;;;;;6.50;4.70;;;;;;;;;;4957622;28;20074;-65
2023/01/11 01:45:06;;;;;;;6.95;5.13;;;;;;;;;;4957638;29;20219;-65
2023/01/11 01:47:36;;;;;;;6.63;5.25;;;;;;;;;;4957617;28;20059;-65
2023/01/11 01:50:07;;;;;;;6.72;5.07;;;;;;;;;;4956386;29;20035;-65
2023/01/11 01:52:35;;;;;;;10.43;5.25;;;;;;;;;;4957592;28;20054;-66
2023/01/11 01:55:05;;;;;;;7.78;4.75;;;;;;;;;;4957478;28;20122;-65
2023/01/11 01:57:34;;;;;;;7.85;5.13;;;;;;;;;;4957445;28;20062;-65
2023/01/11 02:00:03;;;;;;;6.82;5.05;;;;;;;;;;4956347;29;20102;-65
2023/01/11 02:02:32;;;;;;;6.55;5.07;;;;;;;;;;4956117;29;20055;-65
2023/01/11 02:05:00;;;;;;;7.43;5.53;;;;;;;;;;4957269;28;20043;-65
2023/01/11 02:07:32;;;;;;;9.38;5.63;;;;;;;;;;4957291;28;20122;-65
2023/01/11 02:10:05;;;;;;;7.03;5.15;;;;;;;;;;4957281;29;20047;-65
2023/01/11 02:12:44;;;;;;;7.15;5.20;;;;;;;;;;4957222;28;20062;-65
2023/01/11 02:15:12;;;;;;;7.18;5.90;;;;;;;;;;4957253;28;20106;-65
2023/01/11 02:17:40;;;;;;;8.77;5.53;;;;;;;;;;4957115;28;20050;-65
2023/01/11 02:20:13;;;;;;;9.07;5.50;;;;;;;;;;4957022;28;20118;-65
2023/01/11 02:22:44;;;;;;;6.75;5.18;;;;;;;;;;4956836;29;20055;-65
2023/01/11 02:25:14;;;;;;;8.90;6.13;;;;;;;;;;4955798;28;20040;-65
2023/01/11 02:28:01;;;;;;;6.97;5.38;;;;;;;;;;4956980;29;20077;-65
2023/01/11 02:30:33;;;;;;;8.35;5.72;;;;;;;;;;4956481;28;20055;-65
2023/01/11 02:33:10;;;;;;;7.60;5.78;;;;;;;;;;4955431;29;20047;-65
2023/01/11 02:35:43;;;;;;;6.95;5.70;;;;;;;;;;4956794;28;20438;-65
2023/01/11 02:38:19;;;;;;;7.25;5.75;;;;;;;;;;4955512;29;20043;-65
2023/01/11 02:40:46;;;;;;;7.20;5.20;;;;;;;;;;4956553;28;20526;-65
2023/01/11 02:46:32;;;;;;;7.32;5.57;;;;;;;;;;4956372;28;20047;-65
2023/01/11 02:49:08;;;;;;;6.63;5.07;;;;;;;;;;4955237;29;20467;-65
2023/01/11 02:51:40;;;;;;;7.85;5.38;;;;;;;;;;4955292;29;20069;-65
2023/01/11 02:54:08;;;;;;;8.02;5.53;;;;;;;;;;4956454;28;20043;-65
2023/01/11 02:56:38;;;;;;;7.45;5.50;;;;;;;;;;4956387;28;20043;-65
2023/01/11 02:59:08;;;;;;;7.35;5.60;;;;;;;;;;4956354;28;20126;-65
2023/01/11 03:01:54;;;;;;;8.20;5.65;;;;;;;;;;4956194;28;20050;-65
2023/01/11 03:04:21;;;;;;;;;;;;;;;;;;4956595;28;20047;-65
2023/01/11 03:06:52;;;;;;;9.55;6.03;;;;;;;;;;4956197;28;20041;-65
2023/01/11 03:09:24;;;;;;;8.77;6.30;;;;;;;;;;4956382;28;20098;-65
2023/01/11 03:15:04;;;;;;;8.68;6.05;;;;;;;;;;4956113;28;20510;-65
2023/01/11 03:17:37;;;;;;;8.35;5.55;;;;;;;;;;4955952;28;20126;-65
2023/01/11 03:20:17;;;;;;;8.98;5.90;;;;;;;;;;4955886;29;20134;-65
2023/01/11 03:23:11;;;;;;;9.02;5.97;;;;;;;;;;4956102;28;20043;-65
2023/01/11 03:25:53;;;;;;;9.30;5.50;;;;;;;;;;4954539;29;20449;-65
2023/01/11 03:28:34;;;;;;;9.25;5.80;;;;;;;;;;4955842;28;20502;-65
2023/01/11 03:31:04;;;;;;;10.35;5.70;;;;;;;;;;4955737;28;20047;-65
2023/01/11 03:33:43;;;;;;;8.73;5.80;;;;;;;;;;4955766;28;20550;-65
2023/01/11 03:36:17;;;;;;;9.18;5.45;;;;;;;;;;4955682;29;20151;-65
2023/01/11 03:38:56;;;;;;;8.98;5.38;;;;;;;;;;4955691;28;20043;-65
2023/01/11 03:41:25;;;;;;;7.45;5.45;;;;;;;;;;4955559;29;20047;-65
2023/01/11 03:43:53;;;;;;;7.68;5.65;;;;;;;;;;4955521;28;20130;-65
2023/01/11 03:46:27;;;;;;;8.95;5.50;;;;;;;;;;4955509;28;20048;-65
2023/01/11 03:49:05;;;;;;;10.43;5.90;;;;;;;;;;4955368;28;20517;-65
2023/01/11 03:51:37;;;;;;;7.93;5.50;;;;;;;;;;4955462;28;20051;-65
2023/01/11 03:54:06;;;;;;;8.00;5.57;;;;;;;;;;4955397;28;20123;-65
2023/01/11 03:56:37;;;;;;;8.75;5.63;;;;;;;;;;4955302;28;20039;-65
2023/01/11 03:59:05;;;;;;;9.98;6.00;;;;;;;;;;4955274;28;20058;-66
2023/01/11 04:01:33;;;;;;;8.57;5.97;;;;;;;;;;4955416;28;20035;-65
2023/01/11 04:04:00;;;;;;;9.40;5.97;;;;;;;;;;4955395;28;20057;-65
2023/01/11 04:06:28;;;;;;;10.15;6.57;;;;;;;;;;4955483;28;20394;-65
2023/01/11 04:08:55;;;;;;;9.93;6.13;;;;;;;;;;4955199;28;20039;-65
2023/01/11 04:11:23;;;;;;;9.95;6.25;;;;;;;;;;4954541;28;20071;-65
2023/01/11 04:13:50;;;;;;;12.15;6.28;;;;;;;;;;4955056;28;20102;-65
2023/01/11 04:16:18;;;;;;;8.93;6.45;;;;;;;;;;4954840;28;20438;-65
2023/01/11 04:18:45;;;;;;;10.95;7.20;;;;;;;;;;4953591;29;20063;-65
2023/01/11 04:21:13;;;;;;;10.52;6.80;;;;;;;;;;4955036;28;20040;-65
2023/01/11 04:23:40;;;;;;;10.25;6.15;;;;;;;;;;4953441;29;20058;-65
2023/01/11 04:26:07;;;;;;;11.00;6.05;;;;;;;;;;4953699;29;20051;-66
2023/01/11 04:28:35;;;;;;;9.23;6.45;;;;;;;;;;4954678;28;20054;-65
2023/01/11 04:31:03;;;;;;;9.55;6.90;;;;;;;;;;4954625;28;20043;-65
2023/01/11 04:33:30;;;;;;;10.73;6.55;;;;;;;;;;4954723;29;20043;-65
2023/01/11 04:35:57;;;;;;;10.73;6.57;;;;;;;;;;4954597;28;20078;-65
2023/01/11 04:38:26;;;;;;;9.82;6.70;;;;;;;;;;4954931;28;20051;-65
2023/01/11 04:42:17;;;;;;;12.10;6.95;;;;;;;;;;4953457;29;20063;-65
2023/01/11 04:43:40;;;;;;;11.73;7.47;;;;;;;;;;4954863;28;20039;-65
2023/01/11 04:46:09;;;;;;;13.07;8.35;;;;;;;;;;4954365;28;20051;-65
2023/01/11 04:48:38;;;;;;;15.75;9.60;;;;;;;;;;4954473;29;20047;-65
2023/01/11 04:51:06;;;;;;;18.20;11.52;;;;;;;;;;4954494;28;20677;-65
2023/01/11 04:53:33;;;;;;;79.60;15.85;;;;;;;;;;4953621;28;20042;-65
2023/01/11 04:56:01;;;;;;;38.33;12.02;;;;;;;;;;4953712;28;20031;-65
2023/01/11 04:58:29;;;;;;;656.90;84.68;;;;;;;;;;4954075;28;20039;-65
2023/01/11 05:00:57;;;;;;;1855.68;253.95;;;;;;;;;;4954371;28;20035;-64
2023/01/11 05:03:24;;;;;;;1999.90;316.38;;;;;;;;;;4954257;28;20536;-64
2023/01/11 05:05:59;;;;;;;707.30;84.03;;;;;;;;;;4953988;28;20035;-65
2023/01/11 05:08:27;;;;;;;110.87;17.07;;;;;;;;;;4952014;29;20048;-65
2023/01/11 05:10:58;;;;;;;1999.90;327.92;;;;;;;;;;4954341;28;20047;-64
2023/01/11 05:13:41;;;;;;;687.53;92.72;;;;;;;;;;4954105;28;20489;-64
2023/01/11 05:16:12;;;;;;;17.70;11.00;;;;;;;;;;4954137;28;20122;-64
2023/01/11 05:18:43;;;;;;;232.25;34.05;;;;;;;;;;4954295;28;20055;-64
2023/01/11 05:21:13;;;;;;;1999.90;515.25;;;;;;;;;;4954152;28;20043;-64
2023/01/11 05:23:41;;;;;;;1357.55;166.60;;;;;;;;;;4954123;28;20086;-64
2023/01/11 05:26:10;;;;;;;1999.90;471.05;;;;;;;;;;4954213;28;20051;-64
2023/01/11 05:28:37;;;;;;;1999.90;343.75;;;;;;;;;;4954077;28;20083;-64
2023/01/11 05:31:06;;;;;;;1999.90;365.63;;;;;;;;;;4953928;28;20039;-64
2023/01/11 05:33:33;;;;;;;1999.90;693.67;;;;;;;;;;4954114;28;20047;-64
2023/01/11 05:36:12;;;;;;;1999.90;463.52;;;;;;;;;;4952784;28;20051;-64
2023/01/11 05:38:39;;;;;;;1999.90;552.33;;;;;;;;;;4954011;28;20156;-64
2023/01/11 05:41:09;;;;;;;1999.90;742.00;;;;;;;;;;4954002;28;20553;-64
2023/01/11 05:46:25;;;;;;;1999.90;598.17;;;;;;;;;;4931723;28;20387;-64
2023/01/11 05:48:54;;;;;;;1999.90;484.48;;;;;;;;;;4953313;28;20044;-64
2023/01/11 05:51:22;;;;;;;1999.90;671.70;;;;;;;;;;4953414;28;20049;-64
2023/01/11 05:53:49;;;;;;;1999.90;861.35;;;;;;;;;;4952321;29;20043;-64
2023/01/11 05:56:17;;;;;;;22.17;13.35;;;;;;;;;;4953729;28;20051;-64
2023/01/11 05:58:47;;;;;;;28.95;14.73;;;;;;;;;;4961887;28;20118;-64
2023/01/11 06:01:15;;;;;;;1197.03;163.68;;;;;;;;;;4953834;28;20402;-64
2023/01/11 06:03:42;;;;;;;1999.90;674.05;;;;;;;;;;4953841;28;20094;-64
2023/01/11 06:06:10;;;;;;;1999.90;757.03;;;;;;;;;;4954427;28;20043;-64
2023/01/11 06:08:37;;;;;;;1999.90;624.22;;;;;;;;;;4957235;28;20545;-64
2023/01/11 06:11:05;;;;;;;1999.90;434.60;;;;;;;;;;4957188;28;20490;-64
2023/01/11 06:13:34;;;;;;;1999.90;444.23;;;;;;;;;;4957118;28;20058;-64
2023/01/11 06:16:06;;;;;;;1999.90;640.80;;;;;;;;;;4957154;28;20047;-64
2023/01/11 06:18:35;;;;;;;1999.90;568.03;;;;;;;;;;4957031;28;20070;-64
2023/01/11 06:21:03;;;;;;;1999.90;846.72;;;;;;;;;;4957024;28;20039;-64
2023/01/11 06:23:32;;;;;;;1999.90;858.25;;;;;;;;;;4956811;29;20130;-64
2023/01/11 06:26:03;;;;;;;1999.90;619.97;;;;;;;;;;4957021;28;20118;-64
2023/01/11 06:28:31;;;;;;;792.83;116.40;;;;;;;;;;4957227;28;20102;-64
2023/01/11 06:30:59;;;;;;;558.97;81.30;;;;;;;;;;4956895;28;20039;-64
2023/01/11 06:33:27;;;;;;;1999.90;802.58;;;;;;;;;;4957012;28;20047;-64
2023/01/11 06:35:55;;;;;;;1999.90;734.40;;;;;;;;;;4956884;28;20048;-65
2023/01/11 06:38:23;;;;;;;847.40;102.38;;;;;;;;;;4957010;28;20385;-64
2023/01/11 06:40:55;;;;;;;97.47;20.77;;;;;;;;;;4956811;28;20129;-65
2023/01/11 06:43:23;;;;;;;22.27;11.85;;;;;;;;;;4956552;28;20070;-64
2023/01/11 06:45:51;;;;;;;20.98;12.27;;;;;;;;;;4956293;28;20462;-64
2023/01/11 06:48:19;;;;;;;20.45;11.32;;;;;;;;;;4955343;29;20413;-64
2023/01/11 06:50:50;;;;;;;19.42;11.68;;;;;;;;;;4956437;28;20051;-63
2023/01/11 06:53:17;;;;;;;19.90;11.77;;;;;;;;;;4955200;29;20051;-63
2023/01/11 06:55:48;;;;;;;20.77;11.68;;;;;;;;;;4956498;29;20123;-64
2023/01/11 06:58:16;;;;;;;20.48;11.18;;;;;;;;;;4956393;28;20510;-64
2023/01/11 07:00:43;;;;;;;23.50;13.50;;;;;;;;;;4956378;28;20043;-64
2023/01/11 07:03:12;;;;;;;19.52;12.18;;;;;;;;;;4956173;28;20139;-64
2023/01/11 07:05:40;;;;;;;25.83;12.85;;;;;;;;;;4956211;28;20126;-63
2023/01/11 07:08:07;;;;;;;18.77;11.57;;;;;;;;;;4956378;28;20055;-63
2023/01/11 07:10:34;;;;;;;22.88;12.52;;;;;;;;;;4956149;28;20066;-63
2023/01/11 07:13:02;;;;;;;20.63;11.15;;;;;;;;;;4956005;29;20042;-63
2023/01/11 07:15:30;;;;;;;16.40;10.20;;;;;;;;;;4956027;28;20138;-63
2023/01/11 07:17:58;;;;;;;21.85;11.40;;;;;;;;;;4955624;28;20371;-63
2023/01/11 07:20:26;;;;;;;20.95;11.60;;;;;;;;;;4955901;28;20055;-62
2023/01/11 07:22:58;;;;;;;24.58;13.48;;;;;;;;;;4955762;28;20079;-63
2023/01/11 07:25:26;;;;;;;26.02;15.10;;;;;;;;;;4955811;28;20035;-63
2023/01/11 07:27:58;;;;;;;27.75;15.05;;;;;;;;;;4955833;28;20090;-63
2023/01/11 07:30:26;;;;;;;27.92;15.02;;;;;;;;;;4955680;29;20130;-63
2023/01/11 07:32:54;;;;;;;24.30;14.98;;;;;;;;;;4955722;28;20044;-63
2023/01/11 07:35:21;;;;;;;23.52;13.73;;;;;;;;;;4955685;29;20118;-63
2023/01/11 07:37:49;;;;;;;29.48;16.88;;;;;;;;;;4955692;28;20117;-63
2023/01/11 07:40:17;;;;;;;35.33;18.63;;;;;;;;;;4955572;29;20054;-64
2023/01/11 07:43:10;;;;;;;36.80;20.45;;;;;;;;;;4954199;29;20047;-63
2023/01/11 07:45:39;;;;;;;33.90;19.30;;;;;;;;;;4955332;28;20075;-63
2023/01/11 07:48:12;;;;;;;40.90;20.92;;;;;;;;;;4955847;28;20047;-63
2023/01/11 07:50:40;;;;;;;38.22;19.23;;;;;;;;;;4955417;28;20043;-63
2023/01/11 07:53:11;;;;;;;42.25;21.33;;;;;;;;;;4955320;28;20051;-63
2023/01/11 07:55:39;;;;;;;34.28;19.15;;;;;;;;;;4955361;28;20043;-63
2023/01/11 07:58:07;;;;;;;35.17;18.85;;;;;;;;;;4986554;28;20150;-63
2023/01/11 08:00:35;;;;;;;34.47;19.55;;;;;;;;;;4955186;28;20043;-63
2023/01/11 08:03:02;;;;;;;37.92;20.95;;;;;;;;;;4953900;29;20043;-63
2023/01/11 08:05:30;;;;;;;29.35;17.83;;;;;;;;;;4956908;28;20043;-63
2023/01/11 08:07:57;;;;;;;31.85;18.52;;;;;;;;;;4956524;28;20382;-63
2023/01/11 08:10:25;;;;;;;44.25;21.15;;;;;;;;;;4955316;28;20127;-63
2023/01/11 08:15:41;;;;;;;39.97;21.50;;;;;;;;;;4954301;29;20430;-62
2023/01/11 08:18:10;;;;;;;44.08;24.65;;;;;;;;;;4954894;28;20089;-62
2023/01/11 08:20:38;;;;;;;46.50;27.70;;;;;;;;;;4954764;28;20552;-63
2023/01/11 08:23:06;;;;;;;49.63;27.15;;;;;;;;;;4954867;28;20039;-63
2023/01/11 08:25:33;;;;;;;43.90;24.02;;;;;;;;;;4955551;28;20390;-62
2023/01/11 08:28:05;;;;;;;53.85;28.65;;;;;;;;;;4954844;28;20047;-63
2023/01/11 08:30:33;;;;;;;56.90;29.67;;;;;;;;;;4954049;28;20044;-63
2023/01/11 08:33:01;;;;;;;54.25;29.65;;;;;;;;;;4954741;28;20071;-63
2023/01/11 08:35:29;;;;;;;67.13;33.25;;;;;;;;;;4954962;28;20043;-63
2023/01/11 08:37:56;;;;;;;67.30;33.50;;;;;;;;;;4954697;28;20122;-63
2023/01/11 08:40:26;;;;;;;60.58;31.67;;;;;;;;;;4954645;28;20047;-63
2023/01/11 08:42:55;;;;;;;57.90;31.35;;;;;;;;;;4954489;28;20043;-63
2023/01/11 08:45:23;;;;;;;64.32;33.60;;;;;;;;;;4954603;28;20040;-63
2023/01/11 08:47:52;;;;;;;68.90;35.35;;;;;;;;;;4954383;28;20532;-64
2023/01/11 08:50:20;;;;;;;70.28;35.58;;;;;;;;;;4954593;28;20138;-65
2023/01/11 08:52:49;;;;;;;67.70;35.70;;;;;;;;;;4954433;28;20371;-63
2023/01/11 08:55:17;;;;;;;71.82;35.22;;;;;;;;;;4954567;28;20066;-64
2023/01/11 08:57:45;;;;;;;69.70;37.03;;;;;;;;;;4954412;28;20115;-64
2023/01/11 09:00:13;;;;;;;76.97;37.92;;;;;;;;;;4954363;28;20043;-64
2023/01/11 09:02:40;;;;;;;62.50;34.00;;;;;;;;;;4954106;28;20047;-64
2023/01/11 09:05:08;;;;;;;62.22;32.78;;;;;;;;;;4959148;28;20520;-63
2023/01/11 09:07:35;;;;;;;51.33;29.63;;;;;;;;;;4959355;28;20905;-63
2023/01/11 09:10:03;;;;;;;51.17;29.60;;;;;;;;;;4964377;28;20106;-64
2023/01/11 09:12:31;;;;;;;49.22;30.70;;;;;;;;;;4954275;28;20039;-64
2023/01/11 09:14:59;;;;;;;51.80;30.38;;;;;;;;;;4954228;29;20387;-64
2023/01/11 09:17:27;;;;;;;35.28;21.60;;;;;;;;;;4954252;28;20576;-63
2023/01/11 09:19:55;;;;;;;33.15;20.48;;;;;;;;;;4954199;29;20439;-64
2023/01/11 09:22:22;;;;;;;31.65;19.77;;;;;;;;;;4954154;28;20450;-63
2023/01/11 09:24:50;;;;;;;26.20;16.70;;;;;;;;;;4953259;29;20417;-63
2023/01/11 09:27:18;;;;;;;25.95;16.35;;;;;;;;;;4970576;28;20131;-64
2023/01/11 09:29:45;;;;;;;27.88;18.13;;;;;;;;;;4973333;28;20039;-64
2023/01/11 09:32:12;;;;;;;29.13;19.00;;;;;;;;;;4973525;28;20269;-63
2023/01/11 09:34:41;;;;;;;26.10;17.13;;;;;;;;;;4972202;28;20127;-63
2023/01/11 09:37:09;;;;;;;22.75;14.68;;;;;;;;;;4973117;28;20515;-63
2023/01/11 09:39:37;;;;;;;21.08;13.75;;;;;;;;;;4972282;28;20054;-63
2023/01/11 09:42:11;;;;;;;20.50;13.70;;;;;;;;;;4976988;28;20043;-63
2023/01/11 09:44:46;;;;;;;19.90;11.60;;;;;;;;;;4977086;28;20047;-63
2023/01/11 09:47:21;;;;;;;21.02;13.73;;;;;;;;;;4976910;28;20089;-63
2023/01/11 09:49:53;;;;;;;20.88;13.80;;;;;;;;;;4976985;28;20405;-63
2023/01/11 09:52:31;;;;;;;23.02;14.32;;;;;;;;;;4976977;28;20074;-63
2023/01/11 09:55:00;;;;;;;22.73;13.77;;;;;;;;;;4975644;28;20501;-63
2023/01/11 09:57:52;;;;;;;21.48;13.45;;;;;;;;;;4976822;28;20066;-63
2023/01/11 10:00:27;;;;;;;22.48;15.02;;;;;;;;;;4958771;28;20134;-64
2023/01/11 10:02:58;;;;;;;20.40;13.48;;;;;;;;;;4976824;28;20397;-63
2023/01/11 10:05:33;;;;;;;21.40;13.60;;;;;;;;;;4976930;28;20047;-63
2023/01/11 10:08:07;;;;;;;18.08;11.90;;;;;;;;;;4976578;28;20508;-63
2023/01/11 10:11:00;;;;;;;22.25;14.50;;;;;;;;;;4975393;28;20046;-63
2023/01/11 10:14:10;;;;;;;24.25;15.38;;;;;;;;;;4975145;28;20038;-63
2023/01/11 10:17:00;;;;;;;24.73;14.52;;;;;;;;;;4976502;28;20047;-63
2023/01/11 10:19:53;;;;;;;23.15;14.25;;;;;;;;;;4976316;28;20095;-63
2023/01/11 10:22:23;;;;;;;24.27;15.30;;;;;;;;;;4976337;28;20137;-63
2023/01/11 10:24:55;;;;;;;30.42;19.08;;;;;;;;;;4976271;28;20048;-63
2023/01/11 10:27:32;;;;;;;32.00;19.25;;;;;;;;;;4976209;28;20433;-63
2023/01/11 10:30:32;;;;;;;32.70;19.48;;;;;;;;;;4976283;28;20400;-63
2023/01/11 10:38:42;;;;;;;33.92;19.77;;;;;;;;;;4976134;28;20077;-63
2023/01/11 10:41:21;;;;;;;37.97;22.60;;;;;;;;;;4976185;28;20117;-63
2023/01/11 10:43:52;;;;;;;47.28;26.70;;;;;;;;;;4974912;28;20051;-63
2023/01/11 10:46:23;;;;;;;36.60;21.02;;;;;;;;;;4975945;28;20417;-63
2023/01/11 10:48:56;;;;;;;28.90;18.15;;;;;;;;;;4976006;28;20046;-63
2023/01/11 10:51:26;;;;;;;24.40;16.25;;;;;;;;;;4975778;28;20039;-63
2023/01/11 10:53:58;;;;;;;29.33;18.20;;;;;;;;;;4975768;28;20110;-63
2023/01/11 10:56:35;;;;;;;36.72;23.17;;;;;;;;;;4975820;28;20569;-63
2023/01/11 10:59:09;;;;;;;38.35;23.23;;;;;;;;;;4974565;28;20493;-63
2023/01/11 11:01:57;;;;;;;32.97;19.70;;;;;;;;;;4975829;28;20442;-64
2023/01/11 11:04:33;;;;;;;28.05;17.35;;;;;;;;;;4975403;28;20066;-63
2023/01/11 11:07:06;;;;;;;24.17;14.88;;;;;;;;;;4975547;28;20054;-63
2023/01/11 11:09:33;;;;;;;20.52;11.93;;;;;;;;;;4974407;28;20051;-63
2023/01/11 11:12:20;;;;;;;18.17;11.35;;;;;;;;;;4975579;28;20074;-63
2023/01/11 11:15:10;;;;;;;16.83;11.07;;;;;;;;;;4975452;28;20035;-63
2023/01/11 11:17:39;;;;;;;24.27;14.32;;;;;;;;;;4957327;28;20102;-64
2023/01/11 11:20:12;;;;;;;27.67;14.15;;;;;;;;;;4975419;28;20095;-63
2023/01/11 11:22:40;;;;;;;15.77;10.02;;;;;;;;;;4975395;28;20047;-64
2023/01/11 11:25:14;;;;;;;19.83;11.85;;;;;;;;;;4975146;28;20117;-64
2023/01/11 11:27:45;;;;;;;19.65;12.02;;;;;;;;;;4975422;28;20126;-64
2023/01/11 11:30:13;;;;;;;21.75;11.85;;;;;;;;;;4975188;28;20082;-64
2023/01/11 11:32:46;;;;;;;24.25;13.95;;;;;;;;;;4975283;28;20041;-64
2023/01/11 11:35:29;;;;;;;24.75;14.05;;;;;;;;;;4974995;28;20074;-63
2023/01/11 11:37:57;;;;;;;28.63;15.32;;;;;;;;;;4975135;28;20074;-64
2023/01/11 11:40:35;;;;;;;36.88;20.42;;;;;;;;;;4975350;28;20497;-63
2023/01/11 11:43:17;;;;;;;37.72;20.48;;;;;;;;;;4974883;28;20057;-64
2023/01/11 11:45:55;;;;;;;47.42;23.70;;;;;;;;;;4974760;28;20042;-63
2023/01/11 11:48:25;;;;;;;46.85;23.20;;;;;;;;;;4974836;28;20121;-64
2023/01/11 11:50:53;;;;;;;43.30;23.00;;;;;;;;;;4974771;28;20042;-63
2023/01/11 11:53:24;;;;;;;48.45;24.15;;;;;;;;;;4974733;28;20121;-64
2023/01/11 11:55:52;;;;;;;45.72;23.58;;;;;;;;;;4974650;28;20494;-63
2023/01/11 11:58:21;;;;;;;50.50;24.75;;;;;;;;;;4974515;28;20058;-64
2023/01/11 12:00:50;;;;;;;46.90;24.83;;;;;;;;;;4975146;28;20071;-63
2023/01/11 12:03:24;;;;;;;41.97;22.63;;;;;;;;;;4975541;28;20534;-64
2023/01/11 12:06:06;;;;;;;48.47;25.02;;;;;;;;;;4974394;28;20043;-64
2023/01/11 12:08:34;;;;;;;41.47;22.15;;;;;;;;;;4973224;28;20102;-63
2023/01/11 12:11:03;;;;;;;39.83;21.95;;;;;;;;;;4974613;28;20101;-64
2023/01/11 12:13:37;;;;;;;40.72;23.13;;;;;;;;;;4974264;28;20047;-64
2023/01/11 12:16:34;;;;;;;44.95;24.83;;;;;;;;;;4974376;28;20035;-63
2023/01/11 12:19:02;;;;;;;42.53;24.23;;;;;;;;;;4965984;28;20078;-64
2023/01/11 12:21:29;;;;;;;46.88;25.08;;;;;;;;;;4973140;28;20058;-64
2023/01/11 12:24:18;;;;;;;49.88;26.42;;;;;;;;;;4974052;28;20061;-63
2023/01/11 12:26:51;;;;;;;36.08;19.08;;;;;;;;;;4973192;28;20421;-64
2023/01/11 12:29:35;;;;;;;32.60;19.15;;;;;;;;;;4974103;28;20516;-63
2023/01/11 12:32:12;;;;;;;34.88;21.63;;;;;;;;;;4974094;28;20042;-64
2023/01/11 12:34:52;;;;;;;7.43;4.95;;;;;;;;;;4972825;28;20062;-63
2023/01/11 12:37:38;;;;;;;5.82;3.90;;;;;;;;;;4973970;28;20114;-63
2023/01/11 12:40:28;;;;;;;4.90;3.53;;;;;;;;;;4974067;28;20049;-63
2023/01/11 12:43:05;;;;;;;5.03;3.63;;;;;;;;;;4968770;28;20129;-63
2023/01/11 12:45:33;;;;;;;6.07;4.47;;;;;;;;;;4973546;28;20046;-63
2023/01/11 12:48:19;;;;;;;7.32;5.10;;;;;;;;;;4973822;28;20094;-63
2023/01/11 12:51:04;;;;;;;6.90;5.18;;;;;;;;;;4973750;28;20370;-63
2023/01/11 12:53:47;;;;;;;5.35;3.60;;;;;;;;;;4973938;28;20544;-63
2023/01/11 12:56:21;;;;;;;3.40;2.40;;;;;;;;;;4973931;28;20054;-63
2023/01/11 12:58:52;;;;;;;4.40;2.80;;;;;;;;;;4974095;28;20046;-63
2023/01/11 13:01:37;;;;;;;7.07;4.75;;;;;;;;;;4973766;28;20053;-63
2023/01/11 13:04:19;;;;;;;5.80;3.60;;;;;;;;;;4973608;28;20405;-63
2023/01/11 13:06:55;;;;;;;6.70;4.50;;;;;;;;;;4973678;28;20050;-63
2023/01/11 13:09:29;;;;;;;5.10;3.60;;;;;;;;;;4972346;28;20081;-63
2023/01/11 13:12:02;;;;;;;7.05;3.60;;;;;;;;;;4973663;28;20130;-63
2023/01/11 13:14:30;;;;;;;4.97;3.40;;;;;;;;;;4972398;28;20057;-63
2023/01/11 13:17:15;;;;;;;6.43;3.85;;;;;;;;;;4977300;28;20077;-63
2023/01/11 13:19:43;;;;;;;;;;;;;;;;;;4977942;28;20053;-63
2023/01/11 13:22:21;;;;;;;7.57;4.50;;;;;;;;;;4976238;28;20364;-63
2023/01/11 13:24:50;;;;;;;6.85;5.00;;;;;;;;;;4977448;28;20564;-64
2023/01/11 13:27:21;;;;;;;8.32;5.13;;;;;;;;;;4977560;28;20051;-63
2023/01/11 13:29:53;;;;;;;8.00;4.70;;;;;;;;;;4977450;28;20046;-63
2023/01/11 13:32:27;;;;;;;6.95;4.78;;;;;;;;;;4977374;28;20043;-63
2023/01/11 13:34:58;;;;;;;7.78;4.05;;;;;;;;;;4976135;28;20440;-63
2023/01/11 13:37:29;;;;;;;8.27;5.40;;;;;;;;;;4977163;28;20126;-64
2023/01/11 13:40:15;;;;;;;8.23;5.60;;;;;;;;;;4977238;28;20038;-63
2023/01/11 13:43:09;;;;;;;8.30;5.05;;;;;;;;;;4977043;28;20427;-63
2023/01/11 13:45:39;;;;;;;8.18;5.43;;;;;;;;;;4975296;28;20047;-63
2023/01/11 13:48:25;;;;;;;9.65;5.47;;;;;;;;;;4977077;28;20122;-63
2023/01/11 13:50:56;;;;;;;9.65;6.07;;;;;;;;;;4975730;28;20050;-63
2023/01/11 13:53:42;;;;;;;10.80;5.97;;;;;;;;;;4977131;28;20039;-63
2023/01/11 13:56:09;;;;;;;;;;;;;;;;;;4977605;28;20077;-64
2023/01/11 13:58:40;;;;;;;8.13;5.15;;;;;;;;;;4976983;28;20368;-63
2023/01/11 14:01:14;;;;;;;12.48;6.30;;;;;;;;;;4976793;28;20065;-63
2023/01/11 14:03:44;;;;;;;13.13;6.65;;;;;;;;;;4976760;28;20093;-63
2023/01/11 14:06:25;;;;;;;17.70;9.65;;;;;;;;;;4976544;28;20042;-63
2023/01/11 14:08:53;;;;;;;12.77;7.57;;;;;;;;;;4937725;29;20051;-63
2023/01/11 14:11:26;;;;;;;16.55;7.80;;;;;;;;;;4949272;28;20066;-63
2023/01/11 14:14:12;;;;;;;13.95;7.30;;;;;;;;;;4973691;28;20047;-64
2023/01/11 14:16:49;;;;;;;13.80;7.43;;;;;;;;;;4976619;28;20047;-65
2023/01/11 14:19:17;;;;;;;18.00;11.05;;;;;;;;;;4976399;28;20050;-64
2023/01/11 14:22:03;;;;;;;17.83;9.23;;;;;;;;;;4976535;28;20101;-64
2023/01/11 14:24:32;;;;;;;16.73;10.45;;;;;;;;;;4976276;28;20047;-64
2023/01/11 14:27:18;;;;;;;32.60;17.80;;;;;;;;;;4975378;28;20042;-64
2023/01/11 14:29:49;;;;;;;18.42;9.05;;;;;;;;;;4976266;28;20058;-63
2023/01/11 14:32:19;;;;;;;23.95;11.80;;;;;;;;;;4976234;28;20498;-64
2023/01/11 14:34:50;;;;;;;19.75;9.73;;;;;;;;;;4976138;28;20553;-65
2023/01/11 14:37:29;;;;;;;45.78;19.50;;;;;;;;;;4975771;28;20065;-65
2023/01/11 14:39:57;;;;;;;19.02;11.63;;;;;;;;;;4976216;28;20420;-65
2023/01/11 14:42:43;;;;;;;18.65;10.80;;;;;;;;;;4976218;28;20043;-65
2023/01/11 14:45:29;;;;;;;16.63;8.18;;;;;;;;;;4975593;28;20051;-65
2023/01/11 14:48:11;;;;;;;37.47;15.30;;;;;;;;;;4975570;28;20051;-65
2023/01/11 14:50:50;;;;;;;18.52;10.35;;;;;;;;;;4975706;28;20046;-65
2023/01/11 14:53:20;;;;;;;19.45;10.73;;;;;;;;;;4975799;28;20067;-65
2023/01/11 14:55:48;;;;;;;19.50;11.60;;;;;;;;;;4974505;28;20453;-65
2023/01/11 14:58:23;;;;;;;20.52;11.30;;;;;;;;;;4975728;28;20043;-65
2023/01/11 15:00:54;;;;;;;20.80;11.32;;;;;;;;;;4975490;28;20049;-64
2023/01/11 15:03:21;;;;;;;18.30;8.40;;;;;;;;;;4975581;28;20125;-64
2023/01/11 15:05:57;;;;;;;32.03;14.00;;;;;;;;;;4975548;28;20379;-65
2023/01/11 15:08:26;;;;;;;24.45;13.23;;;;;;;;;;4975578;28;20047;-67
2023/01/11 15:10:57;;;;;;;25.25;11.13;;;;;;;;;;4975305;28;20089;-70
2023/01/11 15:13:24;;;;;;;13.88;8.60;;;;;;;;;;4975326;28;20035;-70
2023/01/11 15:18:45;;;;;;;15.18;8.60;;;;;;;;;;4965136;28;20047;-69